createdAt,value
2018-12-17T00:02:07.739Z,33.00
2018-12-17T00:04:35.780Z,28.27
2018-12-17T00:07:03.871Z,40.50
2018-12-17T00:09:31.377Z,38.65
2018-12-17T00:11:58.853Z,31.43
2018-12-17T00:14:26.300Z,32.27
2018-12-17T00:16:53.961Z,40.50
2018-12-17T00:19:21.423Z,34.27
2018-12-17T00:21:49.142Z,35.67
2018-12-17T00:24:16.625Z,49.85
2018-12-17T00:26:44.063Z,32.10
2018-12-17T00:29:12.462Z,35.40
2018-12-17T00:31:39.936Z,33.10
2018-12-17T00:34:07.412Z,33.23
2018-12-17T00:36:34.898Z,39.15
2018-12-17T00:39:02.706Z,32.20
2018-12-17T00:41:30.259Z,38.60
2018-12-17T00:43:57.824Z,34.53
2018-12-17T00:46:25.853Z,32.13
2018-12-17T00:48:53.335Z,27.37
2018-12-17T00:51:21.917Z,36.80
2018-12-17T00:53:49.362Z,33.03
2018-12-17T00:56:17.017Z,32.47
2018-12-17T00:58:44.823Z,31.75
2018-12-17T01:01:12.282Z,29.30
2018-12-17T01:03:39.935Z,32.77
2018-12-17T01:06:07.391Z,35.30
2018-12-17T01:08:34.867Z,34.60
2018-12-17T01:11:02.371Z,31.73
2018-12-17T01:13:29.841Z,38.07
2018-12-17T01:16:01.163Z,28.62
2018-12-17T01:18:33.368Z,32.53
2018-12-17T01:21:00.841Z,31.20
2018-12-17T01:23:28.500Z,34.53
2018-12-17T01:25:56.094Z,39.90
2018-12-17T01:28:24.161Z,36.17
2018-12-17T01:30:51.670Z,30.67
2018-12-17T01:33:19.122Z,34.47
2018-12-17T01:35:46.635Z,34.57
2018-12-17T01:38:14.203Z,38.70
2018-12-17T01:40:41.694Z,33.53
2018-12-17T01:43:09.144Z,36.83
2018-12-17T01:45:36.832Z,33.73
2018-12-17T01:48:04.355Z,35.60
2018-12-17T01:50:32.390Z,36.30
2018-12-17T01:52:59.878Z,41.60
2018-12-17T01:55:27.322Z,29.60
2018-12-17T01:57:54.818Z,31.15
2018-12-17T02:00:22.482Z,33.70
2018-12-17T02:02:49.977Z,35.53
2018-12-17T02:05:17.710Z,30.07
2018-12-17T02:07:46.006Z,34.92
2018-12-17T02:10:13.534Z,31.48
2018-12-17T02:12:40.987Z,28.20
2018-12-17T02:15:08.780Z,32.20
2018-12-17T02:17:36.257Z,32.17
2018-12-17T02:20:04.715Z,30.30
2018-12-17T02:22:32.153Z,28.12
2018-12-17T02:24:59.938Z,33.08
2018-12-17T02:27:27.419Z,35.33
2018-12-17T02:29:54.911Z,38.70
2018-12-17T02:32:22.387Z,28.75
2018-12-17T02:34:49.867Z,31.30
2018-12-17T02:37:17.326Z,29.37
2018-12-17T02:39:44.985Z,33.10
2018-12-17T02:42:13.414Z,30.27
2018-12-17T02:44:40.882Z,32.60
2018-12-17T02:47:08.362Z,36.87
2018-12-17T02:49:38.934Z,32.80
2018-12-17T02:52:06.387Z,27.17
2018-12-17T02:54:34.118Z,45.93
2018-12-17T02:57:01.568Z,33.47
2018-12-17T02:59:29.048Z,31.02
2018-12-17T03:01:57.349Z,31.33
2018-12-17T03:04:24.821Z,32.13
2018-12-17T03:06:52.301Z,40.23
2018-12-17T03:09:19.785Z,37.60
2018-12-17T03:11:47.266Z,38.65
2018-12-17T03:14:14.726Z,28.10
2018-12-17T03:16:42.189Z,31.43
2018-12-17T03:19:09.641Z,31.42
2018-12-17T03:21:37.105Z,30.70
2018-12-17T03:24:05.416Z,35.55
2018-12-17T03:26:32.992Z,30.30
2018-12-17T03:29:00.450Z,35.03
2018-12-17T03:31:28.393Z,40.57
2018-12-17T03:33:55.947Z,36.50
2018-12-17T03:36:28.163Z,40.63
2018-12-17T03:38:55.603Z,36.40
2018-12-17T03:41:23.113Z,40.83
2018-12-17T03:43:50.587Z,38.87
2018-12-17T03:46:18.047Z,37.07
2018-12-17T03:48:45.512Z,36.80
2018-12-17T03:51:13.134Z,38.57
2018-12-17T03:53:40.593Z,35.00
2018-12-17T03:56:08.038Z,44.97
2018-12-17T03:58:35.509Z,42.80
2018-12-17T04:01:03.527Z,34.08
2018-12-17T04:03:31.015Z,33.30
2018-12-17T04:06:01.847Z,38.63
2018-12-17T04:08:29.327Z,35.90
2018-12-17T04:10:57.015Z,43.10
2018-12-17T04:13:24.579Z,43.75
2018-12-17T04:15:52.995Z,39.27
2018-12-17T04:18:20.465Z,40.60
2018-12-17T04:20:48.126Z,46.63
2018-12-17T04:23:15.588Z,38.13
2018-12-17T04:25:43.183Z,34.30
2018-12-17T04:28:10.665Z,47.58
2018-12-17T04:30:38.141Z,38.17
2018-12-17T04:33:06.540Z,38.70
2018-12-17T04:35:34.192Z,37.15
2018-12-17T04:38:01.670Z,39.00
2018-12-17T04:40:29.120Z,39.87
2018-12-17T04:42:56.636Z,42.05
2018-12-17T04:45:24.077Z,45.07
2018-12-17T04:47:51.632Z,49.37
2018-12-17T04:50:19.070Z,50.70
2018-12-17T04:52:49.272Z,42.05
2018-12-17T04:55:16.733Z,53.83
2018-12-17T04:57:44.944Z,44.20
2018-12-17T05:00:12.455Z,48.70
2018-12-17T05:02:39.924Z,53.37
2018-12-17T05:05:07.455Z,69.37
2018-12-17T05:07:38.522Z,57.50
2018-12-17T05:10:06.070Z,62.23
2018-12-17T05:12:34.545Z,65.60
2018-12-17T05:15:03.759Z,58.43
2018-12-17T05:17:31.664Z,68.87
2018-12-17T05:19:59.782Z,63.13
2018-12-17T05:22:31.890Z,68.03
2018-12-17T05:25:00.165Z,51.05
2018-12-17T05:27:27.606Z,46.73
2018-12-17T05:29:55.085Z,57.17
2018-12-17T05:32:22.546Z,67.53
2018-12-17T05:34:50.162Z,59.73
2018-12-17T05:37:21.531Z,58.92
2018-12-17T05:39:49.590Z,75.72
2018-12-17T05:42:17.312Z,70.53
2018-12-17T05:44:44.806Z,71.22
2018-12-17T05:47:12.377Z,62.30
2018-12-17T05:49:39.827Z,76.97
2018-12-17T05:52:07.300Z,78.77
2018-12-17T05:54:34.737Z,72.80
2018-12-17T05:57:02.946Z,70.75
2018-12-17T05:59:30.526Z,82.03
2018-12-17T06:01:58.182Z,75.37
2018-12-17T06:04:25.710Z,65.63
2018-12-17T06:06:53.171Z,68.80
2018-12-17T06:09:20.863Z,75.03
2018-12-17T06:11:48.758Z,80.87
2018-12-17T06:14:16.455Z,71.25
2018-12-17T06:16:44.171Z,86.78
2018-12-17T06:19:11.665Z,90.67
2018-12-17T06:21:39.155Z,78.47
2018-12-17T06:24:06.654Z,89.57
2018-12-17T06:26:34.373Z,77.07
2018-12-17T06:29:01.820Z,75.05
2018-12-17T06:31:29.570Z,76.25
2018-12-17T06:33:57.061Z,83.50
2018-12-17T06:36:24.724Z,75.10
2018-12-17T06:38:52.217Z,80.53
2018-12-17T06:41:19.690Z,82.77
2018-12-17T06:43:47.168Z,79.90
2018-12-17T06:46:14.636Z,81.47
2018-12-17T06:48:42.178Z,61.87
2018-12-17T06:51:09.678Z,77.43
2018-12-17T06:53:38.163Z,78.55
2018-12-17T06:56:05.615Z,80.93
2018-12-17T06:58:33.433Z,61.43
2018-12-17T07:01:00.897Z,56.03
2018-12-17T07:03:28.564Z,87.80
2018-12-17T07:05:56.043Z,68.12
2018-12-17T07:08:23.565Z,71.72
2018-12-17T07:10:51.019Z,65.40
2018-12-17T07:13:18.518Z,65.40
2018-12-17T07:15:46.794Z,63.98
2018-12-17T07:18:14.269Z,67.47
2018-12-17T07:20:41.734Z,65.73
2018-12-17T07:23:09.268Z,63.28
2018-12-17T07:25:36.725Z,54.97
2018-12-17T07:28:04.596Z,62.00
2018-12-17T07:30:32.038Z,57.95
2018-12-17T07:33:00.158Z,71.85
2018-12-17T07:35:27.949Z,70.35
2018-12-17T07:37:55.426Z,56.80
2018-12-17T07:40:22.903Z,57.73
2018-12-17T07:42:50.342Z,60.27
2018-12-17T07:45:18.086Z,62.27
2018-12-17T07:47:45.615Z,53.38
2018-12-17T07:50:14.022Z,66.90
2018-12-17T07:52:41.688Z,52.13
2018-12-17T07:55:09.158Z,48.20
2018-12-17T07:57:36.816Z,52.23
2018-12-17T08:00:07.236Z,55.30
2018-12-17T08:02:34.951Z,47.50
2018-12-17T08:05:02.431Z,52.62
2018-12-17T08:07:30.122Z,43.70
2018-12-17T08:09:58.148Z,49.27
2018-12-17T08:12:25.686Z,52.37
2018-12-17T08:14:53.427Z,39.33
2018-12-17T08:17:20.906Z,38.23
2018-12-17T08:19:48.401Z,47.15
2018-12-17T08:22:15.883Z,43.90
2018-12-17T08:24:43.349Z,41.40
2018-12-17T08:27:11.615Z,51.45
2018-12-17T08:29:39.103Z,52.70
2018-12-17T08:32:06.547Z,40.17
2018-12-17T08:34:34.300Z,41.15
2018-12-17T08:37:01.773Z,41.93
2018-12-17T08:39:29.416Z,40.60
2018-12-17T08:41:57.088Z,41.87
2018-12-17T08:44:25.187Z,40.08
2018-12-17T08:46:52.754Z,51.17
2018-12-17T08:49:20.276Z,48.00
2018-12-17T08:51:47.739Z,39.00
2018-12-17T08:54:15.192Z,42.00
2018-12-17T08:56:42.649Z,48.20
2018-12-17T08:59:10.107Z,40.60
2018-12-17T09:01:37.628Z,50.37
2018-12-17T09:04:05.390Z,44.07
2018-12-17T09:06:33.578Z,40.70
2018-12-17T09:09:01.385Z,39.00
2018-12-17T09:11:28.834Z,35.13
2018-12-17T09:13:56.322Z,34.70
2018-12-17T09:16:23.834Z,32.07
2018-12-17T09:18:52.217Z,34.27
2018-12-17T09:21:19.929Z,38.50
2018-12-17T09:23:47.341Z,31.57
2018-12-17T09:26:18.173Z,31.63
2018-12-17T09:28:45.771Z,37.20
2018-12-17T09:31:13.252Z,28.13
2018-12-17T09:33:40.752Z,33.80
2018-12-17T09:36:08.229Z,32.93
2018-12-17T09:38:36.524Z,37.55
2018-12-17T09:41:04.246Z,29.90
2018-12-17T09:43:31.774Z,34.63
2018-12-17T09:45:59.994Z,35.07
2018-12-17T09:48:27.534Z,35.35
2018-12-17T09:50:55.914Z,32.53
2018-12-17T09:53:23.525Z,31.70
2018-12-17T09:55:51.010Z,26.33
2018-12-17T09:58:18.696Z,27.02
2018-12-17T10:00:46.379Z,30.35
2018-12-17T10:03:13.866Z,32.60
2018-12-17T10:05:41.521Z,26.07
2018-12-17T10:08:09.446Z,27.05
2018-12-17T10:10:37.525Z,27.35
2018-12-17T10:13:05.256Z,24.43
2018-12-17T10:15:32.691Z,23.60
2018-12-17T10:18:00.177Z,23.80
2018-12-17T10:20:27.642Z,22.10
2018-12-17T10:22:55.110Z,28.27
2018-12-17T10:25:23.485Z,21.53
2018-12-17T10:27:50.923Z,30.70
2018-12-17T10:30:18.659Z,21.40
2018-12-17T10:32:46.092Z,18.27
2018-12-17T10:35:13.626Z,27.30
2018-12-17T10:37:41.089Z,22.48
2018-12-17T10:40:09.283Z,20.57
2018-12-17T10:42:37.253Z,20.80
2018-12-17T10:45:06.087Z,20.07
2018-12-17T10:47:33.540Z,21.50
2018-12-17T10:50:01.246Z,22.67
2018-12-17T10:52:28.795Z,17.13
2018-12-17T10:54:56.260Z,24.20
2018-12-17T10:57:23.723Z,20.07
2018-12-17T10:59:51.320Z,28.47
2018-12-17T11:02:21.651Z,22.17
2018-12-17T11:04:51.072Z,23.10
2018-12-17T11:07:18.508Z,23.17
2018-12-17T11:09:46.026Z,19.30
2018-12-17T11:12:13.485Z,21.50
2018-12-17T11:14:41.236Z,18.52
2018-12-17T11:17:08.893Z,23.90
2018-12-17T11:19:36.369Z,21.20
2018-12-17T11:22:03.814Z,16.48
2018-12-17T11:24:31.287Z,18.48
2018-12-17T11:26:59.610Z,17.40
2018-12-17T11:29:27.101Z,23.80
2018-12-17T11:31:54.529Z,20.03
2018-12-17T11:34:22.019Z,15.50
2018-12-17T11:36:49.796Z,15.78
2018-12-17T11:39:17.244Z,14.70
2018-12-17T11:41:44.713Z,14.47
2018-12-17T11:44:12.791Z,16.70
2018-12-17T11:46:40.348Z,14.98
2018-12-17T11:49:07.862Z,13.10
2018-12-17T11:51:35.290Z,15.65
2018-12-17T11:54:02.817Z,14.73
2018-12-17T11:56:38.308Z,18.15
2018-12-17T11:59:09.386Z,12.87
2018-12-17T12:01:36.846Z,15.48
2018-12-17T12:04:04.321Z,20.00
2018-12-17T12:06:31.786Z,16.25
2018-12-17T12:08:59.255Z,15.32
2018-12-17T12:11:26.775Z,13.84
2018-12-17T12:13:57.192Z,21.10
2018-12-17T12:16:24.866Z,16.43
2018-12-17T12:18:52.626Z,13.65
2018-12-17T12:21:20.124Z,18.70
2018-12-17T12:23:47.589Z,15.07
2018-12-17T12:26:15.102Z,13.83
2018-12-17T12:28:42.764Z,23.37
2018-12-17T12:31:10.226Z,16.93
2018-12-17T12:33:37.681Z,21.57
2018-12-17T12:36:05.186Z,18.32
2018-12-17T12:38:32.632Z,12.90
2018-12-17T12:41:01.079Z,15.50
2018-12-17T12:43:28.557Z,13.50
2018-12-17T12:45:56.297Z,13.50
2018-12-17T12:48:24.143Z,13.13
2018-12-17T12:50:51.606Z,16.35
2018-12-17T12:53:19.836Z,19.37
2018-12-17T12:55:47.293Z,17.98
2018-12-17T12:58:14.750Z,14.77
2018-12-17T13:00:42.210Z,12.57
2018-12-17T13:03:09.868Z,14.90
2018-12-17T13:05:37.387Z,10.30
2018-12-17T13:08:04.888Z,13.50
2018-12-17T13:10:32.610Z,14.27
2018-12-17T13:13:00.073Z,13.00
2018-12-17T13:15:28.810Z,12.10
2018-12-17T13:17:56.547Z,13.73
2018-12-17T13:20:24.079Z,14.47
2018-12-17T13:22:51.983Z,14.13
2018-12-17T13:25:21.418Z,12.33
2018-12-17T13:27:48.854Z,15.20
2018-12-17T13:30:17.225Z,10.45
2018-12-17T13:32:44.712Z,15.33
2018-12-17T13:35:12.187Z,14.03
2018-12-17T13:37:39.956Z,12.85
2018-12-17T13:40:08.455Z,18.17
2018-12-17T13:42:35.942Z,16.25
2018-12-17T13:45:04.525Z,14.17
2018-12-17T13:47:31.981Z,22.03
2018-12-17T13:50:01.570Z,15.23
2018-12-17T13:52:34.813Z,12.30
2018-12-17T13:55:02.393Z,17.53
2018-12-17T13:57:29.974Z,11.93
2018-12-17T13:59:57.418Z,16.30
2018-12-17T14:02:24.927Z,14.05
2018-12-17T14:04:52.390Z,12.23
2018-12-17T14:07:20.445Z,12.17
2018-12-17T14:09:53.533Z,10.93
2018-12-17T14:12:21.922Z,13.80
2018-12-17T14:14:49.380Z,13.32
2018-12-17T14:17:22.598Z,13.63
2018-12-17T14:22:52.163Z,15.27
2018-12-17T14:25:19.694Z,14.83
2018-12-17T14:27:47.229Z,15.50
2018-12-17T14:30:14.769Z,15.40
2018-12-17T14:32:42.242Z,13.47
2018-12-17T14:35:09.941Z,14.13
2018-12-17T14:37:39.357Z,18.40
2018-12-17T14:40:07.577Z,14.10
2018-12-17T14:42:35.038Z,18.70
2018-12-17T14:45:02.726Z,18.43
2018-12-17T14:47:30.390Z,14.50
2018-12-17T14:49:57.913Z,15.23
2018-12-17T14:52:25.934Z,16.40
2018-12-17T14:54:53.375Z,15.33
2018-12-17T14:57:20.856Z,14.73
2018-12-17T14:59:48.410Z,18.73
2018-12-17T15:02:15.858Z,19.30
2018-12-17T15:04:43.384Z,16.03
2018-12-17T15:07:11.246Z,17.03
2018-12-17T15:09:39.262Z,16.05
2018-12-17T15:12:06.732Z,14.80
2018-12-17T15:14:34.210Z,13.93
2018-12-17T15:17:04.608Z,12.40
2018-12-17T15:19:32.061Z,16.60
2018-12-17T15:21:59.499Z,12.60
2018-12-17T15:24:26.968Z,15.78
2018-12-17T15:26:54.463Z,13.40
2018-12-17T15:29:22.012Z,12.47
2018-12-17T15:31:49.605Z,11.77
2018-12-17T15:34:23.399Z,17.15
2018-12-17T15:36:50.870Z,21.00
2018-12-17T15:39:18.383Z,18.50
2018-12-17T15:41:46.128Z,10.57
2018-12-17T15:44:13.601Z,19.67
2018-12-17T15:46:41.337Z,16.15
2018-12-17T15:49:08.786Z,11.97
2018-12-17T15:51:36.639Z,16.65
2018-12-17T15:54:04.145Z,19.17
2018-12-17T15:56:32.135Z,14.50
2018-12-17T15:58:59.572Z,12.57
2018-12-17T16:01:27.342Z,20.53
2018-12-17T16:03:57.790Z,14.60
2018-12-17T16:06:25.246Z,19.10
2018-12-17T16:08:52.715Z,15.10
2018-12-17T16:11:20.201Z,18.43
2018-12-17T16:13:47.661Z,13.13
2018-12-17T16:16:16.071Z,14.05
2018-12-17T16:18:43.598Z,16.67
2018-12-17T16:21:11.130Z,19.40
2018-12-17T16:23:38.631Z,15.03
2018-12-17T16:26:06.145Z,23.85
2018-12-17T16:28:33.627Z,20.10
2018-12-17T16:31:01.263Z,17.80
2018-12-17T16:33:30.111Z,18.20
2018-12-17T16:35:58.093Z,16.55
2018-12-17T16:38:25.586Z,17.63
2018-12-17T16:40:53.087Z,25.37
2018-12-17T16:43:20.750Z,19.25
2018-12-17T16:45:49.129Z,24.90
2018-12-17T16:48:16.596Z,20.43
2018-12-17T16:50:44.088Z,15.63
2018-12-17T16:53:11.626Z,17.32
2018-12-17T16:55:39.073Z,23.97
2018-12-17T16:58:06.548Z,16.83
2018-12-17T17:00:34.026Z,18.35
2018-12-17T17:03:01.514Z,13.98
2018-12-17T17:05:32.862Z,21.07
2018-12-17T17:08:00.322Z,20.90
2018-12-17T17:10:27.790Z,21.07
2018-12-17T17:12:55.331Z,16.55
2018-12-17T17:15:22.802Z,27.00
2018-12-17T17:17:50.409Z,13.00
2018-12-17T17:20:22.337Z,16.60
2018-12-17T17:22:49.858Z,16.40
2018-12-17T17:25:17.387Z,15.13
2018-12-17T17:27:44.826Z,15.77
2018-12-17T17:30:12.359Z,17.43
2018-12-17T17:32:39.838Z,18.67
2018-12-17T17:35:07.407Z,15.00
2018-12-17T17:37:35.834Z,23.85
2018-12-17T17:40:03.763Z,16.87
2018-12-17T17:42:31.822Z,27.50
2018-12-17T17:44:59.273Z,15.90
2018-12-17T17:47:26.865Z,19.43
2018-12-17T17:49:55.039Z,21.95
2018-12-17T17:52:22.518Z,14.43
2018-12-17T17:54:49.962Z,14.67
2018-12-17T17:57:17.667Z,20.97
2018-12-17T17:59:45.160Z,16.10
2018-12-17T18:02:18.572Z,13.73
2018-12-17T18:04:46.083Z,13.97
2018-12-17T18:07:13.904Z,22.47
2018-12-17T18:09:41.379Z,21.37
2018-12-17T18:12:09.550Z,18.15
2018-12-17T18:14:37.010Z,18.77
2018-12-17T18:17:04.497Z,11.83
2018-12-17T18:19:31.947Z,18.47
2018-12-17T18:21:59.380Z,15.68
2018-12-17T18:24:26.874Z,16.43
2018-12-17T18:26:54.737Z,22.43
2018-12-17T18:29:23.014Z,18.85
2018-12-17T18:31:50.451Z,18.17
2018-12-17T18:34:18.047Z,18.80
2018-12-17T18:36:45.480Z,14.33
2018-12-17T18:39:13.179Z,21.97
2018-12-17T18:41:40.673Z,18.70
2018-12-17T18:44:08.110Z,18.40
2018-12-17T18:46:35.590Z,18.40
2018-12-17T18:49:03.073Z,21.17
2018-12-17T18:51:30.620Z,16.10
2018-12-17T18:53:58.170Z,20.37
2018-12-17T18:56:26.023Z,20.70
2018-12-17T18:58:53.481Z,17.33
2018-12-17T19:01:20.958Z,20.62
2018-12-17T19:03:48.439Z,21.85
2018-12-17T19:06:15.887Z,14.80
2018-12-17T19:08:43.354Z,18.42
2018-12-17T19:11:10.807Z,19.17
2018-12-17T19:13:38.466Z,24.55
2018-12-17T19:16:06.869Z,23.60
2018-12-17T19:18:34.349Z,20.20
2018-12-17T19:21:02.342Z,28.45
2018-12-17T19:23:29.844Z,18.77
2018-12-17T19:25:57.408Z,23.02
2018-12-17T19:28:24.970Z,23.83
2018-12-17T19:30:52.720Z,19.27
2018-12-17T19:33:20.170Z,22.00
2018-12-17T19:35:48.033Z,19.90
2018-12-17T19:38:15.566Z,21.53
2018-12-17T19:40:43.018Z,18.83
2018-12-17T19:43:10.623Z,21.40
2018-12-17T19:45:38.094Z,30.37
2018-12-17T19:48:05.554Z,22.13
2018-12-17T19:50:33.061Z,20.33
2018-12-17T19:53:01.360Z,24.82
2018-12-17T19:55:29.279Z,22.90
2018-12-17T19:57:56.718Z,28.57
2018-12-17T20:00:24.240Z,22.80
2018-12-17T20:02:51.983Z,25.20
2018-12-17T20:05:20.553Z,20.20
2018-12-17T20:07:48.002Z,20.77
2018-12-17T20:10:21.333Z,24.30
2018-12-17T20:12:48.808Z,24.07
2018-12-17T20:15:16.335Z,18.23
2018-12-17T20:17:44.085Z,19.32
2018-12-17T20:20:11.646Z,23.57
2018-12-17T20:22:39.497Z,21.33
2018-12-17T20:25:07.048Z,28.85
2018-12-17T20:27:34.850Z,22.95
2018-12-17T20:30:02.333Z,66.00
2018-12-17T20:32:30.059Z,22.80
2018-12-17T20:34:57.665Z,28.87
2018-12-17T20:37:25.111Z,24.43
2018-12-17T20:39:52.587Z,27.93
2018-12-17T20:42:20.104Z,27.87
2018-12-17T20:44:48.916Z,34.53
2018-12-17T20:47:16.370Z,32.37
2018-12-17T20:49:44.035Z,30.20
2018-12-17T20:52:11.533Z,27.90
2018-12-17T20:54:39.292Z,28.80
2018-12-17T20:57:06.811Z,30.27
2018-12-17T20:59:34.491Z,25.40
2018-12-17T21:02:02.339Z,32.00
2018-12-17T21:04:29.796Z,28.27
2018-12-17T21:06:57.325Z,24.43
2018-12-17T21:09:25.637Z,29.03
2018-12-17T21:11:53.116Z,24.12
2018-12-17T21:14:23.774Z,23.98
2018-12-17T21:16:51.466Z,24.90
2018-12-17T21:19:18.932Z,24.80
2018-12-17T21:21:46.417Z,20.20
2018-12-17T21:24:13.887Z,19.00
2018-12-17T21:26:41.386Z,28.53
2018-12-17T21:29:08.874Z,18.60
2018-12-17T21:31:36.329Z,22.33
2018-12-17T21:34:03.824Z,20.20
2018-12-17T21:36:31.546Z,26.10
2018-12-17T21:38:59.736Z,22.55
2018-12-17T21:41:27.265Z,23.87
2018-12-17T21:43:54.833Z,27.77
2018-12-17T21:46:22.390Z,25.62
2018-12-17T21:48:49.833Z,23.70
2018-12-17T21:51:17.377Z,26.23
2018-12-17T21:53:48.551Z,23.53
2018-12-17T21:56:16.046Z,27.90
2018-12-17T21:58:43.640Z,25.60
2018-12-17T22:01:11.358Z,25.35
2018-12-17T22:03:38.837Z,24.50
2018-12-17T22:06:06.334Z,22.97
2018-12-17T22:08:33.803Z,25.10
2018-12-17T22:11:01.289Z,25.63
2018-12-17T22:13:28.753Z,28.23
2018-12-17T22:15:57.153Z,26.27
2018-12-17T22:18:24.878Z,28.60
2018-12-17T22:20:52.346Z,21.30
2018-12-17T22:23:19.802Z,22.43
2018-12-17T22:25:51.126Z,20.47
2018-12-17T22:28:18.609Z,21.55
2018-12-17T22:30:46.485Z,25.20
2018-12-17T22:33:19.742Z,22.98
2018-12-17T22:35:43.920Z,23.47
2018-12-17T22:38:11.518Z,21.42
2018-12-17T22:40:39.054Z,21.07
2018-12-17T22:43:06.517Z,20.90
2018-12-17T22:45:34.280Z,17.92
2018-12-17T22:48:01.767Z,20.20
2018-12-17T22:50:29.239Z,20.85
2018-12-17T22:52:56.686Z,19.00
2018-12-17T22:55:28.604Z,21.40
2018-12-17T22:57:56.368Z,19.63
2018-12-17T23:00:23.878Z,21.77
2018-12-17T23:02:51.448Z,20.73
2018-12-17T23:05:18.950Z,21.17
2018-12-17T23:07:46.418Z,18.07
2018-12-17T23:10:26.382Z,24.45
2018-12-17T23:13:05.638Z,19.90
2018-12-17T23:15:45.285Z,20.80
2018-12-17T23:18:12.343Z,15.63
2018-12-17T23:20:42.064Z,20.40
2018-12-17T23:23:10.764Z,21.10
2018-12-17T23:25:38.229Z,14.70
2018-12-17T23:28:07.685Z,14.30
2018-12-17T23:30:35.306Z,19.37
2018-12-17T23:33:03.018Z,16.40
2018-12-17T23:35:30.461Z,19.92
2018-12-17T23:37:57.919Z,16.20
2018-12-17T23:40:31.553Z,15.13
2018-12-17T23:42:59.551Z,17.68
2018-12-17T23:45:27.066Z,16.15
2018-12-17T23:47:54.783Z,17.32
2018-12-17T23:50:22.470Z,14.10
2018-12-17T23:52:49.902Z,16.20
2018-12-17T23:55:17.383Z,16.07
2018-12-17T23:57:44.921Z,15.83
